createdAt,value
2022-08-05T00:02:15.985Z,1.50
2022-08-05T00:04:55.613Z,1.25
2022-08-05T00:08:00.898Z,1.25
2022-08-05T00:10:27.252Z,1.33
2022-08-05T00:13:00.922Z,1.33
2022-08-05T00:15:55.476Z,0.93
2022-08-05T00:18:30.443Z,1.20
2022-08-05T00:21:04.197Z,1.33
2022-08-05T00:23:45.833Z,1.20
2022-08-05T00:26:22.640Z,1.02
2022-08-05T00:28:56.505Z,0.95
2022-08-05T00:31:54.148Z,1.13
2022-08-05T00:34:56.931Z,1.20
2022-08-05T00:37:17.923Z,1.30
2022-08-05T00:39:58.066Z,1.60
2022-08-05T00:42:42.357Z,1.20
2022-08-05T00:45:38.848Z,1.08
2022-08-05T00:48:18.479Z,1.10
2022-08-05T00:51:08.733Z,1.13
2022-08-05T00:54:02.843Z,1.15
2022-08-05T00:56:36.823Z,1.02
2022-08-05T00:59:12.838Z,1.40
2022-08-05T01:01:48.851Z,1.23
2022-08-05T01:04:27.024Z,1.42
2022-08-05T01:07:05.249Z,1.25
2022-08-05T01:09:38.892Z,1.25
2022-08-05T01:12:19.207Z,1.30
2022-08-05T01:15:05.076Z,1.55
2022-08-05T01:17:46.689Z,1.17
2022-08-05T01:20:41.707Z,1.40
2022-08-05T01:23:34.995Z,1.30
2022-08-05T01:26:38.339Z,1.10
2022-08-05T01:29:23.146Z,1.08
2022-08-05T01:32:04.330Z,1.30
2022-08-05T01:34:46.808Z,1.35
2022-08-05T01:37:33.881Z,1.40
2022-08-05T01:40:13.752Z,1.58
2022-08-05T01:42:53.977Z,1.40
2022-08-05T01:45:34.981Z,1.35
2022-08-05T01:48:18.593Z,1.38
2022-08-05T01:50:53.775Z,1.10
2022-08-05T01:53:54.900Z,1.30
2022-08-05T01:58:09.706Z,1.40
2022-08-05T01:59:25.000Z,1.40
2022-08-05T02:02:04.525Z,1.30
2022-08-05T02:04:56.267Z,1.33
2022-08-05T02:07:30.642Z,1.23
2022-08-05T02:10:07.835Z,1.35
2022-08-05T02:12:52.711Z,1.55
2022-08-05T02:15:33.504Z,1.70
2022-08-05T02:18:31.820Z,1.35
2022-08-05T02:21:19.774Z,1.30
2022-08-05T02:24:00.850Z,1.40
2022-08-05T02:26:54.914Z,1.60
2022-08-05T02:29:58.710Z,1.42
2022-08-05T02:32:31.478Z,1.52
2022-08-05T02:35:14.464Z,1.70
2022-08-05T02:37:55.151Z,1.60
2022-08-05T02:40:34.111Z,1.80
2022-08-05T02:43:08.288Z,1.63
2022-08-05T02:45:51.393Z,1.70
2022-08-05T02:48:29.784Z,1.70
2022-08-05T02:51:05.842Z,1.73
2022-08-05T02:53:41.014Z,1.75
2022-08-05T02:56:16.024Z,1.85
2022-08-05T02:58:54.271Z,1.73
2022-08-05T03:01:32.489Z,1.90
2022-08-05T03:04:14.035Z,1.88
2022-08-05T03:06:53.881Z,1.73
2022-08-05T03:09:37.492Z,1.80
2022-08-05T03:12:31.013Z,2.25
2022-08-05T03:15:06.896Z,1.90
2022-08-05T03:17:44.750Z,2.00
2022-08-05T03:20:19.626Z,2.10
2022-08-05T03:22:58.044Z,2.08
2022-08-05T03:26:04.932Z,2.10
2022-08-05T03:28:26.846Z,2.00
2022-08-05T15:47:46.754Z,0.40
2022-08-05T15:50:25.208Z,0.57
2022-08-05T15:53:04.078Z,0.40
2022-08-05T15:56:02.724Z,0.40
2022-08-05T15:58:37.226Z,0.50
2022-08-05T16:01:16.453Z,0.40
2022-08-05T16:03:55.080Z,0.50
2022-08-05T16:06:30.028Z,0.47
2022-08-05T16:09:05.559Z,0.50
2022-08-05T16:11:44.464Z,0.73
2022-08-05T16:14:18.644Z,0.80
2022-08-05T16:16:55.655Z,0.85
2022-08-05T16:20:05.525Z,0.70
2022-08-05T16:22:34.419Z,0.77
2022-08-05T16:25:11.234Z,0.55
2022-08-05T16:28:00.076Z,0.50
2022-08-05T16:30:41.475Z,0.52
2022-08-05T16:33:18.079Z,0.68
2022-08-05T16:35:55.178Z,0.50
2022-08-05T16:38:29.966Z,0.60
2022-08-05T16:42:11.915Z,0.40
2022-08-05T16:44:04.398Z,0.40
2022-08-05T16:46:41.160Z,0.70
2022-08-05T16:49:17.237Z,0.43
2022-08-05T16:51:54.912Z,0.50
2022-08-05T16:54:33.137Z,0.30
2022-08-05T16:57:17.944Z,0.40
2022-08-05T17:00:02.990Z,0.40
2022-08-05T17:02:42.230Z,0.40
2022-08-05T17:05:17.105Z,0.60
2022-08-05T17:07:54.747Z,0.40
2022-08-05T17:10:31.085Z,1.25
2022-08-05T17:13:05.724Z,1.33
2022-08-05T17:15:55.600Z,0.90
2022-08-05T17:18:42.930Z,1.08
2022-08-05T17:21:19.999Z,1.52
2022-08-05T17:24:04.636Z,1.33
2022-08-05T17:26:43.043Z,1.08
2022-08-05T17:29:17.368Z,0.68
2022-08-05T17:31:58.868Z,0.40
2022-08-05T17:34:34.885Z,0.43
2022-08-05T17:37:27.247Z,0.40
2022-08-05T17:40:10.284Z,0.50
2022-08-05T17:42:51.155Z,0.57
2022-08-05T17:45:37.967Z,0.50
2022-08-05T17:48:13.780Z,0.65
2022-08-05T17:50:50.258Z,0.60
2022-08-05T17:53:29.777Z,0.47
2022-08-05T17:56:12.237Z,0.50
2022-08-05T17:58:48.532Z,0.50
2022-08-05T18:01:23.882Z,0.40
2022-08-05T18:04:03.539Z,0.47
2022-08-05T18:06:39.372Z,0.50
2022-08-05T18:09:14.635Z,0.47
2022-08-05T18:11:52.618Z,0.40
2022-08-05T18:14:26.884Z,0.50
2022-08-05T18:17:00.953Z,0.50
2022-08-05T18:19:36.116Z,0.57
2022-08-05T18:22:11.495Z,0.38
2022-08-05T18:24:52.075Z,0.40
2022-08-05T18:27:27.740Z,0.40
2022-08-05T18:30:01.924Z,0.43
2022-08-05T18:32:36.125Z,0.55
2022-08-05T18:35:17.533Z,0.47
2022-08-05T18:37:54.880Z,0.40
2022-08-05T18:41:49.991Z,0.50
2022-08-05T18:43:25.824Z,0.60
2022-08-05T18:46:07.108Z,0.40
2022-08-05T18:48:44.176Z,0.43
2022-08-05T18:52:06.151Z,0.68
2022-08-05T18:54:32.890Z,0.40
2022-08-05T18:57:15.515Z,0.60
2022-08-05T19:00:01.805Z,0.50
2022-08-05T19:02:38.699Z,0.70
2022-08-05T19:06:11.915Z,0.50
2022-08-05T19:08:13.425Z,0.60
2022-08-05T19:10:49.854Z,0.40
2022-08-05T19:13:24.145Z,0.63
2022-08-05T19:16:24.382Z,0.87
2022-08-05T19:19:00.160Z,0.60
2022-08-05T19:21:36.080Z,0.70
2022-08-05T19:24:12.714Z,0.50
2022-08-05T19:26:54.803Z,0.50
2022-08-05T19:29:36.380Z,0.60
2022-08-05T19:32:12.547Z,0.60
2022-08-05T19:34:55.230Z,0.43
2022-08-05T19:37:47.259Z,0.73
2022-08-05T19:40:25.259Z,0.70
2022-08-05T19:43:05.600Z,0.70
2022-08-05T19:45:54.327Z,0.60
2022-08-05T19:48:30.405Z,0.50
2022-08-05T19:51:05.569Z,0.50
2022-08-05T19:54:04.075Z,0.67
2022-08-05T19:56:38.579Z,0.50
2022-08-05T19:59:51.663Z,0.50
2022-08-05T20:02:08.574Z,0.67
2022-08-05T20:04:45.740Z,0.60
2022-08-05T20:07:46.801Z,0.43
2022-08-05T20:10:14.832Z,0.50
2022-08-05T20:12:50.119Z,0.77
2022-08-05T20:15:51.612Z,0.70
2022-08-05T20:18:34.071Z,0.50
2022-08-05T20:21:11.248Z,0.60
2022-08-05T20:23:51.161Z,0.50
2022-08-05T20:26:28.456Z,0.60
2022-08-05T20:29:02.479Z,0.60
2022-08-05T20:31:50.428Z,0.60
2022-08-05T20:34:27.949Z,0.40
2022-08-05T20:37:03.932Z,0.50
2022-08-05T20:39:38.778Z,0.60
2022-08-05T20:42:14.132Z,0.70
2022-08-05T20:44:55.762Z,0.70
2022-08-05T20:47:31.797Z,0.40
2022-08-05T20:50:08.363Z,0.70
2022-08-05T20:52:46.906Z,0.47
2022-08-05T20:56:07.292Z,0.40
2022-08-05T20:58:17.134Z,0.50
2022-08-05T21:00:54.499Z,0.50
2022-08-05T21:03:34.397Z,0.40
2022-08-05T21:06:27.541Z,0.50
2022-08-05T21:09:06.101Z,0.50
2022-08-05T21:12:07.388Z,0.70
2022-08-05T21:14:35.567Z,0.57
2022-08-05T21:17:09.820Z,0.50
2022-08-05T21:19:47.851Z,0.50
2022-08-05T21:22:26.927Z,0.50
2022-08-05T21:25:03.949Z,0.60
2022-08-05T21:27:40.359Z,0.70
2022-08-05T21:30:26.868Z,0.60
2022-08-05T21:33:03.242Z,0.30
2022-08-05T21:35:55.372Z,0.50
2022-08-05T21:38:35.464Z,0.50
2022-08-05T21:41:15.002Z,0.77
2022-08-05T21:44:03.717Z,0.60
2022-08-05T21:46:39.167Z,0.63
2022-08-05T21:49:56.623Z,0.57
2022-08-05T21:52:22.948Z,0.77
2022-08-05T21:55:07.039Z,0.60
2022-08-05T21:57:43.026Z,0.70
2022-08-05T22:00:18.632Z,0.87
2022-08-05T22:02:53.666Z,0.60
2022-08-05T22:05:27.670Z,0.77
2022-08-05T22:08:02.432Z,0.63
2022-08-05T22:10:36.876Z,0.50
2022-08-05T22:14:18.239Z,0.70
2022-08-05T22:16:32.150Z,1.07
2022-08-05T22:19:02.542Z,0.60
2022-08-05T22:21:36.501Z,0.73
2022-08-05T22:24:40.284Z,0.60
2022-08-05T22:28:08.943Z,0.60
2022-08-05T22:30:44.210Z,0.70
2022-08-05T22:33:57.134Z,0.60
2022-08-05T22:36:25.231Z,0.60
2022-08-05T22:39:04.269Z,0.60
2022-08-05T22:42:09.443Z,0.80
2022-08-05T22:44:38.437Z,0.60
2022-08-05T22:47:14.318Z,0.60
2022-08-05T22:50:19.893Z,0.80
2022-08-05T22:52:55.372Z,0.80
2022-08-05T22:55:29.565Z,1.07
2022-08-05T22:58:28.407Z,0.63
2022-08-05T23:01:03.046Z,1.10
2022-08-05T23:03:57.921Z,0.87
2022-08-05T23:06:34.494Z,0.50
2022-08-05T23:09:27.049Z,0.73
2022-08-05T23:12:02.467Z,0.90
2022-08-05T23:14:36.678Z,0.77
2022-08-05T23:17:32.728Z,0.70
2022-08-05T23:20:17.550Z,0.67
2022-08-05T23:22:55.682Z,0.80
2022-08-05T23:25:53.524Z,0.50
2022-08-05T23:28:29.498Z,0.53
2022-08-05T23:31:16.883Z,0.60
2022-08-05T23:34:04.446Z,0.77
2022-08-05T23:36:44.523Z,0.50
2022-08-05T23:39:23.714Z,0.53
2022-08-05T23:42:14.239Z,0.70
2022-08-05T23:44:54.535Z,0.80
2022-08-05T23:47:33.643Z,0.70
2022-08-05T23:50:09.940Z,0.73
2022-08-05T23:52:49.724Z,0.90
2022-08-05T23:55:31.165Z,0.60
2022-08-05T23:58:31.821Z,0.70
